Terminal Aerodrome Forecast
Issued by NWS Oklahoma City, OK

Home | Current Version | Previous Version | Text Only | Print | Product List | Glossary On
Versions: 1 2 3 4 5 6 7 8 9 10 11 12 13 14 15 16 17 18 19 20
000
FTUS44 KOUN 010525
TAFOUN
TAF
KOUN 010525Z 0106/0206 33008KT P6SM SCT200
     FM011100 35012KT P6SM SCT200
     FM011500 36014G20KT P6SM BKN200
     FM020300 01010KT P6SM BKN030 PROB30 0203/0206 4SM -RA BR
      OVC025=

USA.gov is the U.S. government's official web portal to all federal, state and local government web resources and services.